Time;durP1;ratioP1;P1;durP2;ratioP2;P2;SDS_P1;SDS_P2;PMS_P1;PMS_P2;Temp;Humidity;BMP_temperature;BMP_pressure;BME280_temperature;BME280_humidity;BME280_pressure;Samples;Min_cycle;Max_cycle;Signal;HPM_P1;HPM_P2
2022/04/23 00:01:07;;;;;;;3.60;1.30;;;;;;;;;;5007008;28;20665;-89
2022/04/23 00:03:41;;;;;;;4.47;1.45;;;;;;;;;;5018629;28;20038;-89
2022/04/23 00:06:08;;;;;;;5.55;1.50;;;;;;;;;;5028128;28;20400;-89
2022/04/23 00:08:34;;;;;;;3.03;1.65;;;;;;;;;;5010987;28;20041;-89
2022/04/23 00:11:00;;;;;;;5.50;1.58;;;;;;;;;;5024912;28;20040;-89
2022/04/23 00:13:28;;;;;;;7.00;2.20;;;;;;;;;;5007950;28;21613;-89
2022/04/23 00:15:54;;;;;;;4.15;1.45;;;;;;;;;;5025277;28;20037;-89
2022/04/23 00:18:21;;;;;;;5.40;1.67;;;;;;;;;;5019230;28;20481;-90
2022/04/23 00:20:47;;;;;;;6.22;1.77;;;;;;;;;;5007984;28;20555;-89
2022/04/23 00:23:14;;;;;;;6.72;1.75;;;;;;;;;;5007219;28;20125;-89
2022/04/23 00:25:41;;;;;;;5.78;1.55;;;;;;;;;;5012691;28;20104;-89
2022/04/23 00:28:09;;;;;;;4.65;1.83;;;;;;;;;;5016580;28;20157;-89
2022/04/23 00:30:44;;;;;;;3.63;1.77;;;;;;;;;;5018797;28;20029;-89
2022/04/23 00:33:11;;;;;;;6.30;2.10;;;;;;;;;;5018894;28;20057;-89
2022/04/23 00:35:39;;;;;;;7.57;1.75;;;;;;;;;;5016773;28;20401;-89
2022/04/23 00:38:07;;;;;;;5.75;2.50;;;;;;;;;;5015651;28;20026;-89
2022/04/23 00:40:43;;;;;;;11.00;2.75;;;;;;;;;;5016103;28;20033;-89
2022/04/23 00:43:36;;;;;;;11.00;2.78;;;;;;;;;;5002409;28;20087;-89
2022/04/23 00:46:08;;;;;;;5.22;2.33;;;;;;;;;;5017920;28;20045;-89
2022/04/23 00:48:35;;;;;;;5.72;2.85;;;;;;;;;;5032237;28;20369;-88
2022/04/23 00:51:06;;;;;;;6.50;2.65;;;;;;;;;;5045689;28;20033;-89
2022/04/23 00:53:33;;;;;;;6.75;2.50;;;;;;;;;;5035415;28;20040;-88
2022/04/23 00:56:01;;;;;;;6.35;2.60;;;;;;;;;;5029282;28;20684;-89
2022/04/23 00:58:28;;;;;;;6.68;2.28;;;;;;;;;;5034833;28;20092;-89
2022/04/23 01:00:55;;;;;;;6.80;2.65;;;;;;;;;;5033932;28;20028;-89
2022/04/23 01:03:22;;;;;;;6.53;2.80;;;;;;;;;;5030518;28;20040;-89
2022/04/23 01:05:51;;;;;;;5.72;2.15;;;;;;;;;;5042793;28;20035;-90
2022/04/23 01:08:20;;;;;;;6.50;2.50;;;;;;;;;;5048175;28;20033;-89
2022/04/23 01:10:48;;;;;;;8.55;2.67;;;;;;;;;;5023013;28;20128;-89
2022/04/23 01:13:15;;;;;;;7.35;2.35;;;;;;;;;;5031615;28;20033;-89
2022/04/23 01:15:43;;;;;;;6.80;2.40;;;;;;;;;;5032434;28;20048;-89
2022/04/23 01:18:09;;;;;;;7.82;1.95;;;;;;;;;;5032562;28;20035;-89
2022/04/23 01:20:37;;;;;;;5.78;1.88;;;;;;;;;;5029397;28;20032;-89
2022/04/23 01:23:03;;;;;;;3.53;1.58;;;;;;;;;;5028290;28;20035;-90
2022/04/23 01:25:32;;;;;;;4.28;1.63;;;;;;;;;;5034213;28;20039;-90
2022/04/23 01:28:00;;;;;;;4.78;2.42;;;;;;;;;;5034853;28;20479;-90
2022/04/23 01:30:33;;;;;;;7.30;1.77;;;;;;;;;;5036039;28;20515;-90
2022/04/23 01:32:59;;;;;;;8.15;2.00;;;;;;;;;;5052628;28;20056;-89
2022/04/23 01:35:31;;;;;;;6.78;2.13;;;;;;;;;;5033794;28;20029;-89
2022/04/23 01:37:57;;;;;;;7.25;1.88;;;;;;;;;;5032112;28;20531;-90
2022/04/23 01:40:26;;;;;;;5.47;1.77;;;;;;;;;;5029907;28;20029;-88
2022/04/23 01:42:53;;;;;;;6.43;2.28;;;;;;;;;;5046634;28;20404;-88
2022/04/23 01:45:19;;;;;;;5.55;1.50;;;;;;;;;;5032485;28;20041;-89
2022/04/23 01:47:46;;;;;;;4.07;1.60;;;;;;;;;;5034940;28;20041;-85
2022/04/23 01:50:12;;;;;;;4.78;1.38;;;;;;;;;;5022096;28;20124;-89
2022/04/23 01:52:39;;;;;;;4.43;1.38;;;;;;;;;;5012972;28;20384;-88
2022/04/23 01:55:05;;;;;;;4.22;1.50;;;;;;;;;;5033802;28;20036;-87
2022/04/23 01:57:35;;;;;;;3.88;1.00;;;;;;;;;;5034414;28;20033;-87
2022/04/23 02:00:01;;;;;;;5.75;2.17;;;;;;;;;;5039156;28;20068;-87
2022/04/23 02:02:33;;;;;;;3.78;1.65;;;;;;;;;;5021141;28;20502;-87
2022/04/23 02:05:01;;;;;;;5.47;1.42;;;;;;;;;;5037352;28;20088;-86
2022/04/23 02:07:27;;;;;;;3.55;1.83;;;;;;;;;;5035855;28;20091;-87
2022/04/23 02:09:54;;;;;;;5.07;1.50;;;;;;;;;;5033564;28;20439;-87
2022/04/23 02:12:24;;;;;;;6.45;1.83;;;;;;;;;;5034221;28;20028;-87
2022/04/23 02:14:50;;;;;;;3.80;1.58;;;;;;;;;;5034096;28;20039;-87
2022/04/23 02:17:26;;;;;;;3.72;1.77;;;;;;;;;;5049937;28;20029;-87
2022/04/23 02:19:52;;;;;;;5.82;1.83;;;;;;;;;;5033660;28;20554;-86
2022/04/23 02:22:36;;;;;;;5.47;1.90;;;;;;;;;;5045914;28;20396;-87
2022/04/23 02:25:03;;;;;;;6.72;2.67;;;;;;;;;;5051303;28;20053;-88
2022/04/23 02:27:51;;;;;;;5.93;2.17;;;;;;;;;;5027782;28;20033;-88
2022/04/23 02:30:19;;;;;;;4.00;2.08;;;;;;;;;;5030342;28;20133;-86
2022/04/23 02:32:50;;;;;;;6.00;1.92;;;;;;;;;;5035338;28;20041;-87
2022/04/23 02:35:18;;;;;;;4.10;1.95;;;;;;;;;;5027169;28;20123;-89
2022/04/23 02:37:50;;;;;;;5.55;2.25;;;;;;;;;;5033023;28;20029;-87
2022/04/23 02:40:16;;;;;;;4.72;2.20;;;;;;;;;;5029037;28;20037;-87
2022/04/23 02:42:55;;;;;;;3.30;2.00;;;;;;;;;;5046293;28;20072;-88
2022/04/23 02:45:21;;;;;;;6.10;2.10;;;;;;;;;;5036833;28;20052;-88
2022/04/23 02:47:51;;;;;;;6.45;2.10;;;;;;;;;;5023412;28;20136;-87
2022/04/23 02:50:25;;;;;;;5.38;2.90;;;;;;;;;;5025363;28;20041;-88
2022/04/23 02:52:55;;;;;;;5.22;2.75;;;;;;;;;;5028149;28;20494;-88
2022/04/23 02:55:23;;;;;;;5.97;2.55;;;;;;;;;;5027839;28;20021;-88
2022/04/23 02:57:50;;;;;;;6.82;2.80;;;;;;;;;;5038048;28;20018;-87
2022/04/23 03:00:20;;;;;;;7.25;2.70;;;;;;;;;;5028172;28;20033;-87
2022/04/23 03:02:47;;;;;;;6.00;2.83;;;;;;;;;;5034460;28;20427;-88
2022/04/23 03:05:19;;;;;;;7.22;3.35;;;;;;;;;;5033186;28;20045;-88
2022/04/23 03:07:48;;;;;;;7.25;3.83;;;;;;;;;;4679301;28;9999691;-89
2022/04/23 03:10:24;;;;;;;6.38;3.75;;;;;;;;;;5032930;28;20119;-87
2022/04/23 03:12:51;;;;;;;15.63;4.05;;;;;;;;;;4683662;28;10000846;-88
2022/04/23 03:15:17;;;;;;;9.68;4.95;;;;;;;;;;4683819;28;9999849;-89
2022/04/23 03:20:37;;;;;;;12.57;5.15;;;;;;;;;;5058825;28;20562;-87
2022/04/23 03:23:05;;;;;;;11.02;5.28;;;;;;;;;;5052091;28;20029;-87
2022/04/23 03:25:32;;;;;;;9.68;6.10;;;;;;;;;;5033621;28;20463;-88
2022/04/23 03:28:13;;;;;;;10.35;5.55;;;;;;;;;;5035227;28;20499;-88
2022/04/23 03:30:40;;;;;;;9.90;5.47;;;;;;;;;;5048265;28;20200;-88
2022/04/23 03:33:13;;;;;;;8.25;5.43;;;;;;;;;;5053312;28;20039;-88
2022/04/23 03:35:44;;;;;;;12.15;5.53;;;;;;;;;;5031922;28;20086;-88
2022/04/23 03:38:13;;;;;;;9.25;5.45;;;;;;;;;;5033053;28;20041;-88
2022/04/23 03:40:40;;;;;;;11.70;5.07;;;;;;;;;;5033323;28;20533;-88
2022/04/23 03:43:06;;;;;;;10.10;5.43;;;;;;;;;;5034269;28;20036;-89
2022/04/23 03:45:33;;;;;;;13.27;5.15;;;;;;;;;;5021540;28;20493;-88
2022/04/23 03:48:00;;;;;;;10.95;5.80;;;;;;;;;;5023218;28;20026;-89
2022/04/23 03:50:26;;;;;;;10.18;6.40;;;;;;;;;;5016127;28;20088;-87
2022/04/23 03:52:56;;;;;;;11.77;6.43;;;;;;;;;;5033131;28;20174;-87
2022/04/23 03:55:26;;;;;;;13.73;6.78;;;;;;;;;;5019477;28;20037;-90
2022/04/23 03:57:54;;;;;;;12.23;5.78;;;;;;;;;;5015781;28;20476;-86
2022/04/23 04:00:21;;;;;;;19.95;6.28;;;;;;;;;;5021534;28;20030;-88
2022/04/23 04:02:47;;;;;;;10.30;5.75;;;;;;;;;;5010296;28;20635;-87
2022/04/23 04:05:18;;;;;;;9.48;5.90;;;;;;;;;;5032407;28;20033;-87
2022/04/23 04:07:45;;;;;;;11.07;5.50;;;;;;;;;;5017236;28;20172;-87
2022/04/23 04:10:12;;;;;;;14.00;6.30;;;;;;;;;;5016920;28;20060;-86
2022/04/23 04:12:39;;;;;;;11.18;6.05;;;;;;;;;;5033973;28;20030;-86
2022/04/23 04:15:06;;;;;;;11.30;6.65;;;;;;;;;;5021992;28;20396;-86
2022/04/23 04:17:35;;;;;;;13.88;6.05;;;;;;;;;;5019518;28;21386;-87
2022/04/23 04:20:02;;;;;;;13.57;5.63;;;;;;;;;;5018284;28;20484;-87
2022/04/23 04:22:35;;;;;;;10.13;5.68;;;;;;;;;;5025530;28;20048;-88
2022/04/23 04:25:02;;;;;;;13.50;6.38;;;;;;;;;;5014345;28;20040;-89
2022/04/23 04:27:38;;;;;;;9.88;6.05;;;;;;;;;;5018906;28;20555;-88
2022/04/23 04:30:07;;;;;;;10.60;5.78;;;;;;;;;;5021720;28;20041;-89
2022/04/23 04:32:34;;;;;;;13.93;5.20;;;;;;;;;;5006710;28;20042;-88
2022/04/23 04:35:01;;;;;;;10.60;5.57;;;;;;;;;;4999292;28;20543;-88
2022/04/23 04:37:27;;;;;;;11.63;5.30;;;;;;;;;;5010703;28;20060;-88
2022/04/23 04:39:54;;;;;;;13.73;5.65;;;;;;;;;;5022311;28;20040;-88
2022/04/23 04:42:20;;;;;;;13.38;5.50;;;;;;;;;;5027949;28;20499;-88
2022/04/23 04:44:49;;;;;;;10.73;5.50;;;;;;;;;;5014551;28;20155;-87
2022/04/23 04:47:18;;;;;;;13.45;5.93;;;;;;;;;;5036101;28;20120;-86
2022/04/23 04:49:45;;;;;;;14.77;6.25;;;;;;;;;;5030752;28;20040;-85
2022/04/23 04:52:12;;;;;;;14.50;6.75;;;;;;;;;;5031992;28;20029;-86
2022/04/23 04:54:38;;;;;;;12.57;4.97;;;;;;;;;;5036100;28;20095;-86
2022/04/23 04:57:05;;;;;;;16.02;6.15;;;;;;;;;;5028850;28;20055;-87
2022/04/23 04:59:39;;;;;;;8.85;5.97;;;;;;;;;;5034124;28;20021;-86
2022/04/23 05:02:05;;;;;;;8.95;5.85;;;;;;;;;;5046348;28;20544;-87
2022/04/23 05:04:35;;;;;;;13.10;5.45;;;;;;;;;;5028319;28;20029;-88
2022/04/23 05:07:01;;;;;;;9.88;5.30;;;;;;;;;;5043568;28;20432;-87
2022/04/23 05:09:32;;;;;;;13.07;6.35;;;;;;;;;;5032794;28;20484;-88
2022/04/23 05:11:58;;;;;;;9.85;5.95;;;;;;;;;;5034082;28;20041;-87
2022/04/23 05:14:31;;;;;;;11.65;7.10;;;;;;;;;;5033174;28;20117;-88
2022/04/23 05:16:57;;;;;;;11.13;5.90;;;;;;;;;;5039659;28;20373;-87
2022/04/23 05:19:24;;;;;;;13.73;6.75;;;;;;;;;;5035626;28;20088;-87
2022/04/23 05:21:51;;;;;;;16.58;6.60;;;;;;;;;;5025988;28;20108;-87
2022/04/23 05:24:19;;;;;;;15.98;7.00;;;;;;;;;;5034639;28;20484;-87
2022/04/23 05:26:45;;;;;;;12.63;6.25;;;;;;;;;;5031960;28;20511;-86
2022/04/23 05:29:17;;;;;;;13.57;6.47;;;;;;;;;;5040741;28;20067;-87
2022/04/23 05:31:43;;;;;;;16.95;7.85;;;;;;;;;;5043853;28;20079;-87
2022/04/23 05:34:10;;;;;;;16.23;7.30;;;;;;;;;;5033166;28;20038;-87
2022/04/23 05:36:36;;;;;;;16.23;7.28;;;;;;;;;;5027477;28;20060;-88
2022/04/23 05:39:14;;;;;;;13.38;7.30;;;;;;;;;;5039531;28;20029;-88
2022/04/23 05:41:40;;;;;;;9.90;6.93;;;;;;;;;;5034461;28;20053;-88
2022/04/23 05:44:11;;;;;;;14.27;5.95;;;;;;;;;;5033012;28;20037;-88
2022/04/23 05:46:54;;;;;;;16.40;7.40;;;;;;;;;;5050651;28;20040;-88
2022/04/23 05:49:21;;;;;;;16.27;6.93;;;;;;;;;;5027311;28;20041;-88
2022/04/23 05:51:49;;;;;;;13.73;6.90;;;;;;;;;;5036359;28;20040;-88
2022/04/23 05:54:16;;;;;;;17.17;7.45;;;;;;;;;;5029782;28;20133;-87
2022/04/23 05:56:43;;;;;;;12.25;7.93;;;;;;;;;;5030846;28;20356;-87
2022/04/23 05:59:09;;;;;;;17.92;7.95;;;;;;;;;;5050023;28;20033;-87
2022/04/23 06:01:37;;;;;;;18.05;8.52;;;;;;;;;;5032756;28;20170;-86
2022/04/23 06:04:03;;;;;;;18.52;8.57;;;;;;;;;;5032611;28;20492;-88
2022/04/23 06:06:31;;;;;;;15.80;7.38;;;;;;;;;;5033114;28;20040;-87
2022/04/23 06:08:57;;;;;;;16.10;8.95;;;;;;;;;;5033690;28;20484;-88
2022/04/23 06:11:24;;;;;;;15.77;7.93;;;;;;;;;;5023601;28;20038;-88
2022/04/23 06:13:51;;;;;;;20.23;8.48;;;;;;;;;;5034410;28;20038;-88
2022/04/23 06:16:17;;;;;;;14.38;7.22;;;;;;;;;;5028651;28;20026;-88
2022/04/23 06:18:43;;;;;;;13.05;8.18;;;;;;;;;;5047948;28;20072;-88
2022/04/23 06:21:14;;;;;;;11.43;8.07;;;;;;;;;;5035620;28;20380;-88
2022/04/23 06:23:40;;;;;;;14.68;8.55;;;;;;;;;;5035995;28;20037;-88
2022/04/23 06:26:12;;;;;;;14.07;9.13;;;;;;;;;;5031392;28;20891;-88
2022/04/23 06:28:38;;;;;;;18.33;9.25;;;;;;;;;;5029865;28;20073;-88
2022/04/23 06:31:04;;;;;;;13.95;9.73;;;;;;;;;;5033736;28;20044;-88
2022/04/23 06:33:31;;;;;;;18.17;9.30;;;;;;;;;;5032974;28;20037;-88
2022/04/23 06:36:05;;;;;;;14.80;9.15;;;;;;;;;;5030298;28;20032;-87
2022/04/23 06:38:32;;;;;;;15.82;9.80;;;;;;;;;;5034810;28;20044;-89
2022/04/23 06:41:01;;;;;;;15.65;8.95;;;;;;;;;;5051184;28;20744;-87
2022/04/23 06:43:28;;;;;;;16.08;8.35;;;;;;;;;;5034362;28;20037;-88
2022/04/23 06:45:54;;;;;;;15.70;8.30;;;;;;;;;;5053119;28;20361;-89
2022/04/23 06:48:20;;;;;;;16.80;8.55;;;;;;;;;;5052726;28;20395;-89
2022/04/23 06:50:47;;;;;;;13.77;8.63;;;;;;;;;;5032570;28;20041;-89
2022/04/23 06:53:13;;;;;;;14.98;8.30;;;;;;;;;;5027901;28;20083;-89
2022/04/23 06:55:39;;;;;;;15.23;8.32;;;;;;;;;;5037609;28;20373;-88
2022/04/23 06:58:22;;;;;;;17.45;8.65;;;;;;;;;;5059438;28;20162;-89
2022/04/23 07:00:52;;;;;;;16.80;9.13;;;;;;;;;;5037125;28;20071;-89
2022/04/23 07:03:19;;;;;;;23.42;9.73;;;;;;;;;;5037367;28;20038;-88
2022/04/23 07:05:48;;;;;;;14.70;8.43;;;;;;;;;;5034089;28;20055;-89
2022/04/23 07:08:49;;;;;;;14.50;9.18;;;;;;;;;;5036653;28;20084;-88
2022/04/23 07:11:23;;;;;;;13.30;7.78;;;;;;;;;;5035194;28;20071;-89
2022/04/23 07:13:50;;;;;;;15.05;8.50;;;;;;;;;;5035906;28;20029;-89
2022/04/23 07:16:17;;;;;;;14.65;8.18;;;;;;;;;;5051160;28;20187;-89
2022/04/23 07:18:44;;;;;;;18.30;8.20;;;;;;;;;;5021930;28;20403;-89
2022/04/23 07:21:10;;;;;;;18.20;10.23;;;;;;;;;;5045707;28;20033;-88
2022/04/23 07:24:10;;;;;;;18.95;8.80;;;;;;;;;;5037564;28;20063;-88
2022/04/23 07:26:37;;;;;;;20.30;9.25;;;;;;;;;;5037303;28;20044;-89
2022/04/23 07:29:22;;;;;;;15.27;8.18;;;;;;;;;;5039602;28;20025;-89
2022/04/23 07:31:49;;;;;;;17.15;9.25;;;;;;;;;;5029731;28;20037;-87
2022/04/23 07:39:51;;;;;;;16.08;9.85;;;;;;;;;;5050138;28;20661;-88
2022/04/23 07:42:17;;;;;;;14.75;10.18;;;;;;;;;;5033513;28;20117;-88
2022/04/23 07:44:49;;;;;;;13.55;9.10;;;;;;;;;;5034345;28;20044;-89
2022/04/23 07:47:16;;;;;;;17.58;10.20;;;;;;;;;;5016250;28;20038;-89
2022/04/23 07:49:45;;;;;;;15.32;9.43;;;;;;;;;;5015002;28;20038;-89
2022/04/23 07:52:11;;;;;;;13.55;9.60;;;;;;;;;;5026886;28;20044;-89
2022/04/23 07:54:49;;;;;;;14.82;10.45;;;;;;;;;;5016684;28;20041;-89
2022/04/23 07:57:21;;;;;;;16.63;9.00;;;;;;;;;;5005594;28;20048;-89
2022/04/23 07:59:47;;;;;;;18.23;11.52;;;;;;;;;;5013493;28;20037;-89
2022/04/23 08:02:15;;;;;;;20.58;11.27;;;;;;;;;;5026046;28;20038;-89
2022/04/23 08:04:42;;;;;;;19.17;11.35;;;;;;;;;;4998141;28;20038;-89
2022/04/23 08:07:13;;;;;;;16.95;11.77;;;;;;;;;;5029010;28;20049;-89
2022/04/23 08:09:40;;;;;;;19.15;11.13;;;;;;;;;;4669418;28;10000517;-89
2022/04/23 08:12:16;;;;;;;19.17;11.63;;;;;;;;;;5018030;28;20173;-89
2022/04/23 08:14:44;;;;;;;17.23;10.48;;;;;;;;;;5029586;28;20488;-89
2022/04/23 08:17:10;;;;;;;16.63;10.80;;;;;;;;;;5015172;28;20037;-89
2022/04/23 08:19:37;;;;;;;19.55;11.02;;;;;;;;;;5011641;28;20514;-89
2022/04/23 08:22:03;;;;;;;15.00;9.18;;;;;;;;;;5006583;28;20038;-90
2022/04/23 08:24:31;;;;;;;17.05;11.15;;;;;;;;;;5014392;28;20076;-89
2022/04/23 08:26:58;;;;;;;19.98;11.23;;;;;;;;;;5014121;28;20132;-89
2022/04/23 08:32:09;;;;;;;18.35;11.18;;;;;;;;;;5038717;28;20588;-88
2022/04/23 08:34:45;;;;;;;23.80;13.13;;;;;;;;;;5020282;28;20037;-88
2022/04/23 08:37:14;;;;;;;18.40;11.30;;;;;;;;;;5020147;28;20029;-89
2022/04/23 08:39:47;;;;;;;19.00;12.02;;;;;;;;;;5020252;28;20025;-89
2022/04/23 08:42:16;;;;;;;23.85;14.27;;;;;;;;;;5020185;28;20152;-90
2022/04/23 08:44:43;;;;;;;30.67;14.75;;;;;;;;;;5031606;28;20030;-89
2022/04/23 08:47:11;;;;;;;24.92;14.45;;;;;;;;;;5029254;28;20481;-89
2022/04/23 08:49:56;;;;;;;29.60;14.27;;;;;;;;;;5015971;28;20034;-90
2022/04/23 08:52:32;;;;;;;21.85;14.05;;;;;;;;;;5030877;28;20041;-89
2022/04/23 08:55:04;;;;;;;29.52;14.90;;;;;;;;;;5023770;28;20451;-89
2022/04/23 08:57:36;;;;;;;22.35;14.23;;;;;;;;;;5017208;28;20408;-89
2022/04/23 09:00:08;;;;;;;26.73;14.07;;;;;;;;;;5017049;28;20113;-89
2022/04/23 09:02:37;;;;;;;32.55;14.05;;;;;;;;;;5037720;28;20112;-89
2022/04/23 09:05:05;;;;;;;24.35;13.20;;;;;;;;;;5015152;28;20033;-89
2022/04/23 09:07:33;;;;;;;28.90;14.15;;;;;;;;;;5016960;28;20041;-88
2022/04/23 09:10:16;;;;;;;22.80;12.80;;;;;;;;;;5022729;28;20026;-89
2022/04/23 09:12:56;;;;;;;20.50;12.48;;;;;;;;;;5042330;28;20559;-89
2022/04/23 09:27:06;;;;;;;20.75;12.93;;;;;;;;;;5032971;28;20092;-89
2022/04/23 09:29:37;;;;;;;22.23;12.98;;;;;;;;;;4997893;28;20499;-89
2022/04/23 09:32:11;;;;;;;27.98;13.82;;;;;;;;;;5015048;28;20140;-89
2022/04/23 09:34:49;;;;;;;25.27;13.00;;;;;;;;;;5028009;28;20034;-89
2022/04/23 09:38:11;;;;;;;23.90;13.45;;;;;;;;;;5012895;28;20037;-88
2022/04/23 09:40:18;;;;;;;31.17;15.07;;;;;;;;;;5034178;28;20508;-90
2022/04/23 09:42:56;;;;;;;23.25;14.38;;;;;;;;;;5013683;28;20034;-90
2022/04/23 09:45:28;;;;;;;26.50;14.82;;;;;;;;;;4993171;28;20675;-90
2022/04/23 09:47:54;;;;;;;26.50;12.75;;;;;;;;;;5014469;28;20043;-89
2022/04/23 09:50:38;;;;;;;19.20;11.07;;;;;;;;;;5016879;28;20397;-89
2022/04/23 09:53:10;;;;;;;17.63;10.43;;;;;;;;;;5010111;28;20032;-89
2022/04/23 09:55:38;;;;;;;17.33;9.13;;;;;;;;;;5034855;28;20488;-89
2022/04/23 09:58:09;;;;;;;15.52;9.60;;;;;;;;;;5012299;28;20076;-89
2022/04/23 10:00:40;;;;;;;12.43;8.27;;;;;;;;;;5011745;28;20092;-89
2022/04/23 10:03:08;;;;;;;12.70;7.80;;;;;;;;;;5020959;28;20556;-89
2022/04/23 10:05:55;;;;;;;14.80;8.45;;;;;;;;;;5014368;28;20461;-88
2022/04/23 10:08:29;;;;;;;16.50;8.52;;;;;;;;;;5015039;28;20512;-89
2022/04/23 10:11:08;;;;;;;21.83;10.55;;;;;;;;;;5030537;28;20045;-89
2022/04/23 10:13:40;;;;;;;14.65;8.60;;;;;;;;;;5033001;28;20456;-89
2022/04/23 10:16:09;;;;;;;14.02;8.50;;;;;;;;;;5020086;28;20030;-89
2022/04/23 10:18:38;;;;;;;14.85;8.20;;;;;;;;;;5038775;28;20064;-90
2022/04/23 10:21:08;;;;;;;13.68;8.05;;;;;;;;;;5018006;28;20037;-90
2022/04/23 10:23:46;;;;;;;15.27;7.00;;;;;;;;;;5010469;28;20044;-90
2022/04/23 10:26:33;;;;;;;10.85;6.63;;;;;;;;;;5017766;28;20029;-89
2022/04/23 10:29:08;;;;;;;14.10;7.03;;;;;;;;;;5018242;28;20037;-90
2022/04/23 10:31:34;;;;;;;19.58;7.32;;;;;;;;;;5026751;28;20050;-90
2022/04/23 10:34:01;;;;;;;13.20;6.32;;;;;;;;;;5019837;28;20407;-90
2022/04/23 10:36:27;;;;;;;9.45;6.28;;;;;;;;;;5022004;28;20033;-90
2022/04/23 10:39:13;;;;;;;10.07;5.40;;;;;;;;;;5020070;28;20034;-90
2022/04/23 10:41:39;;;;;;;14.95;6.80;;;;;;;;;;5016992;28;20048;-90
2022/04/23 10:44:06;;;;;;;12.73;6.00;;;;;;;;;;5029640;28;20388;-90
2022/04/23 10:46:47;;;;;;;15.23;7.45;;;;;;;;;;5015323;28;20089;-90
2022/04/23 10:49:20;;;;;;;12.55;7.53;;;;;;;;;;5015021;28;20033;-90
2022/04/23 10:51:56;;;;;;;17.63;6.43;;;;;;;;;;5031107;28;20045;-89
2022/04/23 10:54:42;;;;;;;14.25;6.47;;;;;;;;;;5023904;28;20432;-90
2022/04/23 10:57:25;;;;;;;12.52;6.13;;;;;;;;;;5026500;28;20369;-90
2022/04/23 10:59:52;;;;;;;12.25;5.88;;;;;;;;;;5019841;28;20124;-90
2022/04/23 11:02:22;;;;;;;11.60;5.60;;;;;;;;;;5017139;28;20044;-90
2022/04/23 11:13:29;;;;;;;14.20;5.43;;;;;;;;;;5026505;28;20040;-90
2022/04/23 11:16:22;;;;;;;11.40;5.38;;;;;;;;;;5019821;28;20041;-90
2022/04/23 11:18:55;;;;;;;7.03;4.47;;;;;;;;;;5013211;28;20408;-91
2022/04/23 11:21:27;;;;;;;8.43;4.43;;;;;;;;;;5017612;28;20037;-91
2022/04/23 11:23:58;;;;;;;10.50;4.35;;;;;;;;;;5017747;28;20496;-91
2022/04/23 11:26:55;;;;;;;13.05;4.88;;;;;;;;;;5016361;28;20041;-90
2022/04/23 11:29:21;;;;;;;10.63;5.07;;;;;;;;;;5020416;28;20038;-90
2022/04/23 11:31:58;;;;;;;11.80;5.80;;;;;;;;;;5025507;28;20481;-90
2022/04/23 11:34:24;;;;;;;11.90;5.30;;;;;;;;;;5034083;28;20041;-90
2022/04/23 11:36:53;;;;;;;10.63;5.15;;;;;;;;;;5010541;28;20037;-89
2022/04/23 11:39:27;;;;;;;11.25;5.82;;;;;;;;;;5013280;28;20568;-90
2022/04/23 11:41:57;;;;;;;12.35;5.95;;;;;;;;;;5030714;28;21627;-90
2022/04/23 11:47:17;;;;;;;12.82;5.95;;;;;;;;;;5052793;28;20091;-90
2022/04/23 11:49:44;;;;;;;10.23;5.20;;;;;;;;;;5040224;28;20094;-92
2022/04/23 11:52:12;;;;;;;12.90;5.63;;;;;;;;;;5036767;28;20542;-91
2022/04/23 11:54:39;;;;;;;10.02;5.65;;;;;;;;;;5041626;28;20060;-91
2022/04/23 11:57:07;;;;;;;11.40;5.65;;;;;;;;;;5034939;28;20060;-90
2022/04/23 11:59:43;;;;;;;8.48;5.22;;;;;;;;;;5055329;28;20034;-90
2022/04/23 12:02:18;;;;;;;11.00;5.00;;;;;;;;;;5037594;28;20502;-90
2022/04/23 12:04:48;;;;;;;14.77;5.50;;;;;;;;;;5038485;28;20058;-90
2022/04/23 12:07:28;;;;;;;11.68;5.43;;;;;;;;;;5036603;28;20120;-91
2022/04/23 12:09:58;;;;;;;10.30;5.13;;;;;;;;;;5030932;28;20037;-91
2022/04/23 12:12:26;;;;;;;16.83;5.32;;;;;;;;;;5043406;28;20045;-90
2022/04/23 12:14:56;;;;;;;11.57;5.20;;;;;;;;;;5037120;28;20029;-90
2022/04/23 12:17:29;;;;;;;12.10;5.82;;;;;;;;;;5034857;28;20127;-90
2022/04/23 12:20:01;;;;;;;12.27;5.60;;;;;;;;;;5035188;28;20029;-91
2022/04/23 12:22:30;;;;;;;12.35;5.60;;;;;;;;;;5032300;28;20041;-90
2022/04/23 12:25:10;;;;;;;13.98;6.00;;;;;;;;;;5036267;28;20108;-90
2022/04/23 12:27:52;;;;;;;9.90;5.78;;;;;;;;;;5035460;28;20490;-90
2022/04/23 12:42:05;;;;;;;12.98;6.00;;;;;;;;;;5055354;28;20044;-91
2022/04/23 12:44:53;;;;;;;13.23;5.53;;;;;;;;;;5050927;28;20703;-90
2022/04/23 12:47:28;;;;;;;11.15;5.72;;;;;;;;;;5035043;28;20112;-91
2022/04/23 12:49:56;;;;;;;12.98;5.97;;;;;;;;;;5012562;28;20040;-91
2022/04/23 12:52:27;;;;;;;12.13;6.00;;;;;;;;;;5016265;28;20398;-90
2022/04/23 12:55:12;;;;;;;11.57;5.45;;;;;;;;;;5013461;28;20061;-90
2022/04/23 12:57:50;;;;;;;11.75;4.60;;;;;;;;;;5016079;28;20032;-90
2022/04/23 13:00:17;;;;;;;11.82;4.55;;;;;;;;;;5029760;28;20099;-91
2022/04/23 13:03:03;;;;;;;11.43;4.55;;;;;;;;;;5029168;28;20377;-91
2022/04/23 13:05:29;;;;;;;11.27;5.20;;;;;;;;;;5033173;28;20117;-90
2022/04/23 13:10:41;;;;;;;9.70;4.78;;;;;;;;;;5027908;28;20566;-90
2022/04/23 13:13:12;;;;;;;10.82;4.50;;;;;;;;;;5015570;28;20030;-90
2022/04/23 13:15:39;;;;;;;10.57;4.72;;;;;;;;;;5032615;28;20096;-91
2022/04/23 13:18:08;;;;;;;10.77;4.88;;;;;;;;;;5014928;28;20061;-90
2022/04/23 13:20:35;;;;;;;11.20;5.60;;;;;;;;;;5018086;28;20128;-91
2022/04/23 13:23:01;;;;;;;13.43;5.90;;;;;;;;;;5015173;28;20056;-91
2022/04/23 13:25:31;;;;;;;11.52;6.45;;;;;;;;;;5012395;28;20037;-90
2022/04/23 13:27:57;;;;;;;18.33;6.50;;;;;;;;;;5012491;28;20055;-90
2022/04/23 13:30:27;;;;;;;15.55;7.10;;;;;;;;;;5014554;28;20053;-90
2022/04/23 13:32:54;;;;;;;18.35;7.90;;;;;;;;;;5029882;28;20041;-90
2022/04/23 13:35:20;;;;;;;20.92;7.97;;;;;;;;;;5015302;28;20029;-90
2022/04/23 13:37:46;;;;;;;17.67;7.68;;;;;;;;;;5014347;28;20084;-90
2022/04/23 13:40:13;;;;;;;19.55;8.13;;;;;;;;;;5027462;28;20116;-90
2022/04/23 13:42:42;;;;;;;22.73;9.88;;;;;;;;;;5013191;28;20087;-91
2022/04/23 13:45:09;;;;;;;32.25;15.23;;;;;;;;;;5013854;28;20034;-90
2022/04/23 13:47:36;;;;;;;32.05;13.90;;;;;;;;;;5033293;28;20091;-91
2022/04/23 13:50:02;;;;;;;32.97;13.40;;;;;;;;;;5027236;28;20029;-90
2022/04/23 13:52:28;;;;;;;26.02;11.48;;;;;;;;;;5034494;28;20037;-91
2022/04/23 13:54:55;;;;;;;25.17;9.73;;;;;;;;;;5033550;28;20119;-91
2022/04/23 13:57:24;;;;;;;17.58;9.13;;;;;;;;;;5027568;28;20120;-90
2022/04/23 13:59:50;;;;;;;17.65;9.43;;;;;;;;;;5045536;28;20038;-91
2022/04/23 14:10:37;;;;;;;30.38;12.45;;;;;;;;;;5047028;28;20040;-91
2022/04/23 14:13:08;;;;;;;20.75;9.70;;;;;;;;;;5029213;28;20063;-89
2022/04/23 14:15:34;;;;;;;19.13;7.78;;;;;;;;;;4686383;28;9999795;-90
2022/04/23 14:18:02;;;;;;;18.92;7.07;;;;;;;;;;5039880;28;20479;-89
2022/04/23 14:20:29;;;;;;;15.38;7.60;;;;;;;;;;5034945;28;20037;-88
2022/04/23 14:23:01;;;;;;;24.02;8.07;;;;;;;;;;5030416;28;20044;-90
2022/04/23 14:25:28;;;;;;;17.25;9.02;;;;;;;;;;5033220;28;20048;-90
2022/04/23 14:27:56;;;;;;;26.55;12.95;;;;;;;;;;5036588;28;20068;-90
2022/04/23 14:30:22;;;;;;;19.63;10.38;;;;;;;;;;5029034;28;20041;-91
2022/04/23 14:32:49;;;;;;;22.98;10.80;;;;;;;;;;5029536;28;20037;-89
2022/04/23 14:35:16;;;;;;;19.02;10.02;;;;;;;;;;5028819;28;20411;-91
2022/04/23 14:37:42;;;;;;;27.60;10.27;;;;;;;;;;5030427;28;20084;-91
2022/04/23 14:40:09;;;;;;;19.77;9.88;;;;;;;;;;5029510;28;20487;-89
2022/04/23 14:42:36;;;;;;;20.55;10.45;;;;;;;;;;5029499;28;20037;-89
2022/04/23 14:45:02;;;;;;;23.15;11.90;;;;;;;;;;5029938;28;20025;-90
2022/04/23 14:47:29;;;;;;;18.33;11.00;;;;;;;;;;5013681;28;20044;-90
2022/04/23 14:49:56;;;;;;;18.20;9.27;;;;;;;;;;5010795;28;20034;-90
2022/04/23 14:55:20;;;;;;;24.73;13.20;;;;;;;;;;5024825;28;21261;-90
2022/04/23 14:57:46;;;;;;;17.98;8.93;;;;;;;;;;5013704;28;20060;-89
2022/04/23 15:00:14;;;;;;;14.80;7.78;;;;;;;;;;5012955;28;20033;-91
2022/04/23 15:02:40;;;;;;;24.52;9.23;;;;;;;;;;5012421;28;20034;-89
2022/04/23 15:05:15;;;;;;;21.17;10.80;;;;;;;;;;5020818;28;20025;-91
2022/04/23 15:07:41;;;;;;;28.90;12.05;;;;;;;;;;5018575;28;20080;-91
2022/04/23 15:10:22;;;;;;;27.17;11.75;;;;;;;;;;5013270;28;20029;-90
2022/04/23 15:12:50;;;;;;;28.30;12.93;;;;;;;;;;5023808;28;20551;-90
2022/04/23 15:15:17;;;;;;;27.92;12.82;;;;;;;;;;5017412;28;20029;-90
2022/04/23 15:17:43;;;;;;;24.13;12.23;;;;;;;;;;5014104;28;20037;-91
2022/04/23 15:20:20;;;;;;;19.92;10.60;;;;;;;;;;5017006;28;20033;-91
2022/04/23 15:22:48;;;;;;;21.45;11.48;;;;;;;;;;5014517;28;20034;-92
2022/04/23 15:25:16;;;;;;;17.73;9.40;;;;;;;;;;5031861;28;20037;-91
2022/04/23 15:27:43;;;;;;;19.73;8.77;;;;;;;;;;5017109;28;20064;-89
2022/04/23 15:30:09;;;;;;;16.20;8.95;;;;;;;;;;5020057;28;20121;-90
2022/04/23 15:32:36;;;;;;;15.00;8.20;;;;;;;;;;5014178;28;20918;-90
2022/04/23 15:35:27;;;;;;;17.38;8.15;;;;;;;;;;5012897;28;20088;-90
2022/04/23 15:37:54;;;;;;;17.73;9.00;;;;;;;;;;4996064;28;20555;-91
2022/04/23 15:40:23;;;;;;;16.67;8.00;;;;;;;;;;5011150;28;20037;-89
2022/04/23 15:42:50;;;;;;;13.25;7.60;;;;;;;;;;5013654;28;20037;-90
2022/04/23 15:45:23;;;;;;;13.35;8.25;;;;;;;;;;5013350;28;20030;-90
2022/04/23 15:47:49;;;;;;;17.67;7.35;;;;;;;;;;5035454;28;20113;-89